sensor_id;sensor_type;location;lat;lon;timestamp;temperature;humidity
58339;DHT22;68636;52.704;6.536;2023-04-25T00:00:46;5.90;99.90
58339;DHT22;68636;52.704;6.536;2023-04-25T00:03:11;5.90;99.90
58339;DHT22;68636;52.704;6.536;2023-04-25T00:05:37;5.80;99.90
58339;DHT22;68636;52.704;6.536;2023-04-25T00:08:04;5.70;99.90
58339;DHT22;68636;52.704;6.536;2023-04-25T00:10:30;5.70;99.90
58339;DHT22;68636;52.704;6.536;2023-04-25T00:12:56;5.60;99.90
58339;DHT22;68636;52.704;6.536;2023-04-25T00:15:23;5.50;99.90
58339;DHT22;68636;52.704;6.536;2023-04-25T00:17:49;5.50;99.90
58339;DHT22;68636;52.704;6.536;2023-04-25T00:20:18;5.40;99.90
58339;DHT22;68636;52.704;6.536;2023-04-25T00:22:44;5.30;99.90
58339;DHT22;68636;52.704;6.536;2023-04-25T00:25:09;5.30;99.90
58339;DHT22;68636;52.704;6.536;2023-04-25T00:27:35;5.20;99.90
58339;DHT22;68636;52.704;6.536;2023-04-25T00:30:01;5.20;99.90
58339;DHT22;68636;52.704;6.536;2023-04-25T00:32:27;5.20;99.90
58339;DHT22;68636;52.704;6.536;2023-04-25T00:34:54;5.10;99.90
58339;DHT22;68636;52.704;6.536;2023-04-25T00:37:21;5.10;99.90
58339;DHT22;68636;52.704;6.536;2023-04-25T00:39:47;5.00;99.90
58339;DHT22;68636;52.704;6.536;2023-04-25T00:42:13;5.00;99.90
58339;DHT22;68636;52.704;6.536;2023-04-25T00:44:39;5.00;99.90
58339;DHT22;68636;52.704;6.536;2023-04-25T00:47:06;4.90;99.90
58339;DHT22;68636;52.704;6.536;2023-04-25T00:49:32;4.90;99.90
58339;DHT22;68636;52.704;6.536;2023-04-25T00:51:58;4.90;99.90
58339;DHT22;68636;52.704;6.536;2023-04-25T00:54:24;4.80;99.90
58339;DHT22;68636;52.704;6.536;2023-04-25T00:56:50;4.70;99.90
58339;DHT22;68636;52.704;6.536;2023-04-25T00:59:17;4.70;99.90
58339;DHT22;68636;52.704;6.536;2023-04-25T01:01:43;4.70;99.90
58339;DHT22;68636;52.704;6.536;2023-04-25T01:04:10;4.60;99.90
58339;DHT22;68636;52.704;6.536;2023-04-25T01:06:36;4.70;99.90
58339;DHT22;68636;52.704;6.536;2023-04-25T01:09:02;4.70;99.90
58339;DHT22;68636;52.704;6.536;2023-04-25T01:11:29;4.70;99.90
58339;DHT22;68636;52.704;6.536;2023-04-25T01:13:55;4.60;99.90
58339;DHT22;68636;52.704;6.536;2023-04-25T01:16:21;4.80;99.90
58339;DHT22;68636;52.704;6.536;2023-04-25T01:18:49;4.80;99.90
58339;DHT22;68636;52.704;6.536;2023-04-25T01:21:16;4.80;99.90
58339;DHT22;68636;52.704;6.536;2023-04-25T01:23:42;4.80;99.90
58339;DHT22;68636;52.704;6.536;2023-04-25T01:26:10;4.80;99.90
58339;DHT22;68636;52.704;6.536;2023-04-25T01:28:36;4.80;99.90
58339;DHT22;68636;52.704;6.536;2023-04-25T01:31:03;4.70;99.90
58339;DHT22;68636;52.704;6.536;2023-04-25T01:33:29;4.70;99.90
58339;DHT22;68636;52.704;6.536;2023-04-25T01:35:55;4.70;99.90
58339;DHT22;68636;52.704;6.536;2023-04-25T01:38:21;4.70;99.90
58339;DHT22;68636;52.704;6.536;2023-04-25T01:40:46;4.70;99.90
58339;DHT22;68636;52.704;6.536;2023-04-25T01:43:14;4.70;99.90
58339;DHT22;68636;52.704;6.536;2023-04-25T01:45:43;4.70;99.90
58339;DHT22;68636;52.704;6.536;2023-04-25T01:48:10;4.80;99.90
58339;DHT22;68636;52.704;6.536;2023-04-25T01:50:38;4.80;99.90
58339;DHT22;68636;52.704;6.536;2023-04-25T01:53:04;4.80;99.90
58339;DHT22;68636;52.704;6.536;2023-04-25T01:55:30;4.80;99.90
58339;DHT22;68636;52.704;6.536;2023-04-25T01:57:56;4.90;99.90
58339;DHT22;68636;52.704;6.536;2023-04-25T02:00:22;4.90;99.90
58339;DHT22;68636;52.704;6.536;2023-04-25T02:02:48;4.90;99.90
58339;DHT22;68636;52.704;6.536;2023-04-25T02:05:16;4.90;99.90
58339;DHT22;68636;52.704;6.536;2023-04-25T02:07:42;4.90;99.90
58339;DHT22;68636;52.704;6.536;2023-04-25T02:10:08;5.00;99.90
58339;DHT22;68636;52.704;6.536;2023-04-25T02:12:35;5.00;99.90
58339;DHT22;68636;52.704;6.536;2023-04-25T02:15:01;5.00;99.90
58339;DHT22;68636;52.704;6.536;2023-04-25T02:17:27;5.00;99.90
58339;DHT22;68636;52.704;6.536;2023-04-25T02:19:53;5.00;99.90
58339;DHT22;68636;52.704;6.536;2023-04-25T02:22:18;5.00;99.90
58339;DHT22;68636;52.704;6.536;2023-04-25T02:24:45;5.10;99.90
58339;DHT22;68636;52.704;6.536;2023-04-25T02:27:10;5.20;99.90
58339;DHT22;68636;52.704;6.536;2023-04-25T02:29:36;5.10;99.90
58339;DHT22;68636;52.704;6.536;2023-04-25T02:32:02;5.20;99.90
58339;DHT22;68636;52.704;6.536;2023-04-25T02:34:27;5.20;99.90
58339;DHT22;68636;52.704;6.536;2023-04-25T02:36:53;5.20;99.90
58339;DHT22;68636;52.704;6.536;2023-04-25T02:39:19;5.20;99.90
58339;DHT22;68636;52.704;6.536;2023-04-25T02:41:45;5.30;99.90
58339;DHT22;68636;52.704;6.536;2023-04-25T02:44:10;5.30;99.90
58339;DHT22;68636;52.704;6.536;2023-04-25T02:46:36;5.40;99.90
58339;DHT22;68636;52.704;6.536;2023-04-25T02:49:02;5.40;99.90
58339;DHT22;68636;52.704;6.536;2023-04-25T02:51:27;5.30;99.90
58339;DHT22;68636;52.704;6.536;2023-04-25T02:53:53;5.40;99.90
58339;DHT22;68636;52.704;6.536;2023-04-25T02:56:19;5.30;99.90
58339;DHT22;68636;52.704;6.536;2023-04-25T02:58:45;5.40;99.90
58339;DHT22;68636;52.704;6.536;2023-04-25T03:01:10;5.40;99.90
58339;DHT22;68636;52.704;6.536;2023-04-25T03:03:36;5.30;99.90
58339;DHT22;68636;52.704;6.536;2023-04-25T03:06:02;5.20;99.90
58339;DHT22;68636;52.704;6.536;2023-04-25T03:08:28;5.20;99.90
58339;DHT22;68636;52.704;6.536;2023-04-25T03:10:58;5.10;99.90
58339;DHT22;68636;52.704;6.536;2023-04-25T03:13:24;5.10;99.90
58339;DHT22;68636;52.704;6.536;2023-04-25T03:15:50;5.10;99.90
58339;DHT22;68636;52.704;6.536;2023-04-25T03:18:15;5.10;99.90
58339;DHT22;68636;52.704;6.536;2023-04-25T03:20:41;5.10;99.90
58339;DHT22;68636;52.704;6.536;2023-04-25T03:23:07;5.10;99.90
58339;DHT22;68636;52.704;6.536;2023-04-25T03:25:33;5.10;99.90
58339;DHT22;68636;52.704;6.536;2023-04-25T03:27:59;5.10;99.90
58339;DHT22;68636;52.704;6.536;2023-04-25T03:30:25;5.10;99.90
58339;DHT22;68636;52.704;6.536;2023-04-25T03:32:50;5.10;99.90
58339;DHT22;68636;52.704;6.536;2023-04-25T03:35:16;5.10;99.90
58339;DHT22;68636;52.704;6.536;2023-04-25T03:37:42;5.10;99.90
58339;DHT22;68636;52.704;6.536;2023-04-25T03:40:11;5.10;99.90
58339;DHT22;68636;52.704;6.536;2023-04-25T03:42:37;5.10;99.90
58339;DHT22;68636;52.704;6.536;2023-04-25T03:45:03;5.10;99.90
58339;DHT22;68636;52.704;6.536;2023-04-25T03:47:28;5.10;99.90
58339;DHT22;68636;52.704;6.536;2023-04-25T03:49:54;5.10;99.90
58339;DHT22;68636;52.704;6.536;2023-04-25T03:52:20;5.20;99.90
58339;DHT22;68636;52.704;6.536;2023-04-25T03:54:46;5.20;99.90
58339;DHT22;68636;52.704;6.536;2023-04-25T03:57:11;5.30;99.90
58339;DHT22;68636;52.704;6.536;2023-04-25T03:59:37;5.20;99.90
58339;DHT22;68636;52.704;6.536;2023-04-25T04:02:03;5.20;99.90
58339;DHT22;68636;52.704;6.536;2023-04-25T04:04:29;5.10;99.90
58339;DHT22;68636;52.704;6.536;2023-04-25T04:06:55;5.10;99.90
58339;DHT22;68636;52.704;6.536;2023-04-25T04:09:21;5.00;99.90
58339;DHT22;68636;52.704;6.536;2023-04-25T04:11:47;5.00;99.90
58339;DHT22;68636;52.704;6.536;2023-04-25T04:14:13;5.00;99.90
58339;DHT22;68636;52.704;6.536;2023-04-25T04:16:38;4.90;99.90
58339;DHT22;68636;52.704;6.536;2023-04-25T04:19:04;5.00;99.90
58339;DHT22;68636;52.704;6.536;2023-04-25T04:21:30;4.90;99.90
58339;DHT22;68636;52.704;6.536;2023-04-25T04:23:56;4.80;99.90
58339;DHT22;68636;52.704;6.536;2023-04-25T04:26:23;4.90;99.90
58339;DHT22;68636;52.704;6.536;2023-04-25T04:28:49;4.80;99.90
58339;DHT22;68636;52.704;6.536;2023-04-25T04:31:20;4.80;99.90
58339;DHT22;68636;52.704;6.536;2023-04-25T04:33:47;4.80;99.90
58339;DHT22;68636;52.704;6.536;2023-04-25T04:36:12;4.80;99.90
58339;DHT22;68636;52.704;6.536;2023-04-25T04:38:39;4.90;99.90
58339;DHT22;68636;52.704;6.536;2023-04-25T04:41:05;5.00;99.90
58339;DHT22;68636;52.704;6.536;2023-04-25T04:43:31;4.90;99.90
58339;DHT22;68636;52.704;6.536;2023-04-25T04:46:00;5.00;99.90
58339;DHT22;68636;52.704;6.536;2023-04-25T04:48:26;5.00;99.90
58339;DHT22;68636;52.704;6.536;2023-04-25T04:50:52;5.10;99.90
58339;DHT22;68636;52.704;6.536;2023-04-25T04:53:18;5.10;99.90
58339;DHT22;68636;52.704;6.536;2023-04-25T04:55:43;5.00;99.90
58339;DHT22;68636;52.704;6.536;2023-04-25T04:58:09;5.00;99.90
58339;DHT22;68636;52.704;6.536;2023-04-25T05:00:35;4.80;99.90
58339;DHT22;68636;52.704;6.536;2023-04-25T05:03:01;4.70;99.90
58339;DHT22;68636;52.704;6.536;2023-04-25T05:05:26;4.60;99.90
58339;DHT22;68636;52.704;6.536;2023-04-25T05:07:52;4.50;99.90
58339;DHT22;68636;52.704;6.536;2023-04-25T05:10:19;4.50;99.90
58339;DHT22;68636;52.704;6.536;2023-04-25T05:12:44;4.50;99.90
58339;DHT22;68636;52.704;6.536;2023-04-25T05:15:11;4.50;99.90
58339;DHT22;68636;52.704;6.536;2023-04-25T05:17:37;4.50;99.90
58339;DHT22;68636;52.704;6.536;2023-04-25T05:20:03;4.60;99.90
58339;DHT22;68636;52.704;6.536;2023-04-25T05:22:31;4.60;99.90
58339;DHT22;68636;52.704;6.536;2023-04-25T05:24:57;4.70;99.90
58339;DHT22;68636;52.704;6.536;2023-04-25T05:27:24;4.70;99.90
58339;DHT22;68636;52.704;6.536;2023-04-25T05:29:49;4.80;99.90
58339;DHT22;68636;52.704;6.536;2023-04-25T05:32:15;4.90;99.90
58339;DHT22;68636;52.704;6.536;2023-04-25T05:34:41;5.00;99.90
58339;DHT22;68636;52.704;6.536;2023-04-25T05:37:07;4.90;99.90
58339;DHT22;68636;52.704;6.536;2023-04-25T05:39:33;4.90;99.90
58339;DHT22;68636;52.704;6.536;2023-04-25T05:41:58;4.90;99.90
58339;DHT22;68636;52.704;6.536;2023-04-25T05:44:24;4.90;99.90
58339;DHT22;68636;52.704;6.536;2023-04-25T05:46:50;4.90;99.90
58339;DHT22;68636;52.704;6.536;2023-04-25T05:49:16;5.00;99.90
58339;DHT22;68636;52.704;6.536;2023-04-25T05:51:41;5.30;99.90
58339;DHT22;68636;52.704;6.536;2023-04-25T05:54:07;5.40;99.90
58339;DHT22;68636;52.704;6.536;2023-04-25T05:56:33;5.50;99.90
58339;DHT22;68636;52.704;6.536;2023-04-25T05:58:58;5.70;99.90
58339;DHT22;68636;52.704;6.536;2023-04-25T06:01:25;5.80;99.90
58339;DHT22;68636;52.704;6.536;2023-04-25T06:03:50;5.90;99.90
58339;DHT22;68636;52.704;6.536;2023-04-25T06:06:18;6.00;99.90
58339;DHT22;68636;52.704;6.536;2023-04-25T06:08:44;6.00;99.90
58339;DHT22;68636;52.704;6.536;2023-04-25T06:11:10;6.00;99.90
58339;DHT22;68636;52.704;6.536;2023-04-25T06:13:36;6.10;99.90
58339;DHT22;68636;52.704;6.536;2023-04-25T06:16:02;6.10;99.90
58339;DHT22;68636;52.704;6.536;2023-04-25T06:18:27;6.10;99.90
58339;DHT22;68636;52.704;6.536;2023-04-25T06:20:53;6.10;99.90
58339;DHT22;68636;52.704;6.536;2023-04-25T06:23:19;6.10;99.90
58339;DHT22;68636;52.704;6.536;2023-04-25T06:25:45;6.20;99.90
58339;DHT22;68636;52.704;6.536;2023-04-25T06:28:10;6.20;99.90
58339;DHT22;68636;52.704;6.536;2023-04-25T06:30:36;6.20;99.90
58339;DHT22;68636;52.704;6.536;2023-04-25T06:33:02;6.30;99.90
58339;DHT22;68636;52.704;6.536;2023-04-25T06:35:27;6.40;99.90
58339;DHT22;68636;52.704;6.536;2023-04-25T06:37:53;6.50;99.90
58339;DHT22;68636;52.704;6.536;2023-04-25T06:40:19;6.50;99.90
58339;DHT22;68636;52.704;6.536;2023-04-25T06:42:45;6.50;99.90
58339;DHT22;68636;52.704;6.536;2023-04-25T06:45:10;6.40;99.90
58339;DHT22;68636;52.704;6.536;2023-04-25T06:47:36;6.40;99.90
58339;DHT22;68636;52.704;6.536;2023-04-25T06:50:02;6.30;99.90
58339;DHT22;68636;52.704;6.536;2023-04-25T06:52:28;6.40;99.90
58339;DHT22;68636;52.704;6.536;2023-04-25T06:54:53;6.50;99.90
58339;DHT22;68636;52.704;6.536;2023-04-25T06:57:19;6.60;99.90
58339;DHT22;68636;52.704;6.536;2023-04-25T06:59:45;6.70;99.90
58339;DHT22;68636;52.704;6.536;2023-04-25T07:02:11;6.70;99.90
58339;DHT22;68636;52.704;6.536;2023-04-25T07:04:37;6.70;99.90
58339;DHT22;68636;52.704;6.536;2023-04-25T07:07:02;6.90;99.90
58339;DHT22;68636;52.704;6.536;2023-04-25T07:09:29;7.00;99.90
58339;DHT22;68636;52.704;6.536;2023-04-25T07:11:55;7.10;99.90
58339;DHT22;68636;52.704;6.536;2023-04-25T07:14:22;7.20;99.90
58339;DHT22;68636;52.704;6.536;2023-04-25T07:16:47;7.40;99.90
58339;DHT22;68636;52.704;6.536;2023-04-25T07:19:13;7.60;99.90
58339;DHT22;68636;52.704;6.536;2023-04-25T07:21:39;7.60;99.90
58339;DHT22;68636;52.704;6.536;2023-04-25T07:24:05;7.50;99.90
58339;DHT22;68636;52.704;6.536;2023-04-25T07:26:31;7.50;99.90
58339;DHT22;68636;52.704;6.536;2023-04-25T07:28:57;7.50;99.90
58339;DHT22;68636;52.704;6.536;2023-04-25T07:31:23;7.40;99.90
58339;DHT22;68636;52.704;6.536;2023-04-25T07:33:49;7.10;99.90
58339;DHT22;68636;52.704;6.536;2023-04-25T07:36:15;7.10;99.90
58339;DHT22;68636;52.704;6.536;2023-04-25T07:38:41;7.00;99.90
58339;DHT22;68636;52.704;6.536;2023-04-25T07:41:07;6.90;99.90
58339;DHT22;68636;52.704;6.536;2023-04-25T07:43:32;6.90;99.90
58339;DHT22;68636;52.704;6.536;2023-04-25T07:45:58;7.00;99.90
58339;DHT22;68636;52.704;6.536;2023-04-25T07:48:24;7.10;99.90
58339;DHT22;68636;52.704;6.536;2023-04-25T07:50:49;7.10;99.90
58339;DHT22;68636;52.704;6.536;2023-04-25T07:53:15;7.10;99.90
58339;DHT22;68636;52.704;6.536;2023-04-25T07:55:41;7.20;99.90
58339;DHT22;68636;52.704;6.536;2023-04-25T07:58:07;7.30;99.90
58339;DHT22;68636;52.704;6.536;2023-04-25T08:00:33;7.40;99.90
58339;DHT22;68636;52.704;6.536;2023-04-25T08:02:59;7.50;99.90
58339;DHT22;68636;52.704;6.536;2023-04-25T08:05:25;7.70;99.90
58339;DHT22;68636;52.704;6.536;2023-04-25T08:07:51;7.80;99.90
58339;DHT22;68636;52.704;6.536;2023-04-25T08:10:17;7.40;99.90
58339;DHT22;68636;52.704;6.536;2023-04-25T08:12:42;7.60;99.90
58339;DHT22;68636;52.704;6.536;2023-04-25T08:15:09;7.80;99.90
58339;DHT22;68636;52.704;6.536;2023-04-25T08:17:34;7.80;99.90
58339;DHT22;68636;52.704;6.536;2023-04-25T08:20:00;7.80;99.90
58339;DHT22;68636;52.704;6.536;2023-04-25T08:22:28;7.70;99.90
58339;DHT22;68636;52.704;6.536;2023-04-25T08:24:54;7.70;99.90
58339;DHT22;68636;52.704;6.536;2023-04-25T08:27:19;7.80;99.90
58339;DHT22;68636;52.704;6.536;2023-04-25T08:29:46;7.00;99.90
58339;DHT22;68636;52.704;6.536;2023-04-25T08:32:12;6.60;99.90
58339;DHT22;68636;52.704;6.536;2023-04-25T08:34:38;6.10;99.90
58339;DHT22;68636;52.704;6.536;2023-04-25T08:37:08;5.80;99.90
58339;DHT22;68636;52.704;6.536;2023-04-25T08:39:35;5.60;99.90
58339;DHT22;68636;52.704;6.536;2023-04-25T08:42:03;5.20;99.90
58339;DHT22;68636;52.704;6.536;2023-04-25T08:44:33;5.30;99.90
58339;DHT22;68636;52.704;6.536;2023-04-25T08:47:05;5.30;99.90
58339;DHT22;68636;52.704;6.536;2023-04-25T08:49:34;5.20;99.90
58339;DHT22;68636;52.704;6.536;2023-04-25T08:52:02;5.40;99.90
58339;DHT22;68636;52.704;6.536;2023-04-25T08:54:31;5.60;99.90
58339;DHT22;68636;52.704;6.536;2023-04-25T08:56:59;5.70;99.90
58339;DHT22;68636;52.704;6.536;2023-04-25T08:59:28;5.80;99.90
58339;DHT22;68636;52.704;6.536;2023-04-25T09:01:54;5.70;99.90
58339;DHT22;68636;52.704;6.536;2023-04-25T09:04:20;5.80;99.90
58339;DHT22;68636;52.704;6.536;2023-04-25T09:06:47;5.70;99.90
58339;DHT22;68636;52.704;6.536;2023-04-25T09:09:13;5.90;99.90
58339;DHT22;68636;52.704;6.536;2023-04-25T09:11:39;6.10;99.90
58339;DHT22;68636;52.704;6.536;2023-04-25T09:14:22;6.20;99.90
58339;DHT22;68636;52.704;6.536;2023-04-25T09:19:33;6.40;99.90
58339;DHT22;68636;52.704;6.536;2023-04-25T09:22:02;6.60;99.90
58339;DHT22;68636;52.704;6.536;2023-04-25T09:24:33;6.60;99.90
58339;DHT22;68636;52.704;6.536;2023-04-25T09:27:00;6.80;99.90
58339;DHT22;68636;52.704;6.536;2023-04-25T09:29:30;7.10;99.90
58339;DHT22;68636;52.704;6.536;2023-04-25T09:32:23;7.10;99.90
58339;DHT22;68636;52.704;6.536;2023-04-25T09:34:58;7.30;99.90
58339;DHT22;68636;52.704;6.536;2023-04-25T09:37:26;7.70;99.90
58339;DHT22;68636;52.704;6.536;2023-04-25T09:39:57;7.90;99.90
58339;DHT22;68636;52.704;6.536;2023-04-25T09:42:27;8.10;99.90
58339;DHT22;68636;52.704;6.536;2023-04-25T09:44:55;8.40;99.90
58339;DHT22;68636;52.704;6.536;2023-04-25T09:47:22;8.50;99.90
58339;DHT22;68636;52.704;6.536;2023-04-25T09:49:49;8.70;99.90
58339;DHT22;68636;52.704;6.536;2023-04-25T09:52:17;8.90;99.90
58339;DHT22;68636;52.704;6.536;2023-04-25T09:54:45;9.00;99.90
58339;DHT22;68636;52.704;6.536;2023-04-25T09:59:54;9.10;99.90
58339;DHT22;68636;52.704;6.536;2023-04-25T10:02:22;9.10;99.90
58339;DHT22;68636;52.704;6.536;2023-04-25T10:04:51;9.30;99.90
58339;DHT22;68636;52.704;6.536;2023-04-25T10:07:19;9.40;99.90
58339;DHT22;68636;52.704;6.536;2023-04-25T10:09:48;9.50;99.90
58339;DHT22;68636;52.704;6.536;2023-04-25T10:12:16;9.70;99.90
58339;DHT22;68636;52.704;6.536;2023-04-25T10:14:42;10.00;99.90
58339;DHT22;68636;52.704;6.536;2023-04-25T10:17:10;10.20;99.90
58339;DHT22;68636;52.704;6.536;2023-04-25T10:19:37;10.00;99.90
58339;DHT22;68636;52.704;6.536;2023-04-25T10:24:55;9.50;99.90
58339;DHT22;68636;52.704;6.536;2023-04-25T10:27:22;7.80;99.90
58339;DHT22;68636;52.704;6.536;2023-04-25T10:30:03;7.10;99.90
58339;DHT22;68636;52.704;6.536;2023-04-25T10:32:33;6.60;99.90
58339;DHT22;68636;52.704;6.536;2023-04-25T10:35:13;6.70;99.90
58339;DHT22;68636;52.704;6.536;2023-04-25T10:38:00;6.70;99.90
58339;DHT22;68636;52.704;6.536;2023-04-25T10:40:26;6.70;99.90
58339;DHT22;68636;52.704;6.536;2023-04-25T10:42:55;6.70;99.90
58339;DHT22;68636;52.704;6.536;2023-04-25T10:45:22;6.90;99.90
58339;DHT22;68636;52.704;6.536;2023-04-25T10:47:48;7.20;99.90
58339;DHT22;68636;52.704;6.536;2023-04-25T10:50:17;7.70;99.90
58339;DHT22;68636;52.704;6.536;2023-04-25T10:52:43;8.00;99.90
58339;DHT22;68636;52.704;6.536;2023-04-25T10:55:09;8.40;99.90
58339;DHT22;68636;52.704;6.536;2023-04-25T10:57:43;8.80;99.90
58339;DHT22;68636;52.704;6.536;2023-04-25T11:00:20;9.00;99.90
58339;DHT22;68636;52.704;6.536;2023-04-25T11:02:58;9.20;99.90
58339;DHT22;68636;52.704;6.536;2023-04-25T11:05:35;9.00;99.90
58339;DHT22;68636;52.704;6.536;2023-04-25T11:08:01;9.20;99.90
58339;DHT22;68636;52.704;6.536;2023-04-25T11:10:33;9.40;99.90
58339;DHT22;68636;52.704;6.536;2023-04-25T11:13:01;9.40;99.90
58339;DHT22;68636;52.704;6.536;2023-04-25T11:15:27;9.50;99.90
58339;DHT22;68636;52.704;6.536;2023-04-25T11:17:54;9.50;99.90
58339;DHT22;68636;52.704;6.536;2023-04-25T11:25:15;9.70;99.90
58339;DHT22;68636;52.704;6.536;2023-04-25T11:27:53;9.70;99.90
58339;DHT22;68636;52.704;6.536;2023-04-25T11:30:20;9.50;99.90
58339;DHT22;68636;52.704;6.536;2023-04-25T11:32:46;9.70;99.90
58339;DHT22;68636;52.704;6.536;2023-04-25T11:37:42;9.20;99.90
58339;DHT22;68636;52.704;6.536;2023-04-25T11:40:08;9.40;99.90
58339;DHT22;68636;52.704;6.536;2023-04-25T11:42:44;9.70;99.90
58339;DHT22;68636;52.704;6.536;2023-04-25T11:45:10;9.80;99.90
58339;DHT22;68636;52.704;6.536;2023-04-25T11:47:36;10.00;99.90
58339;DHT22;68636;52.704;6.536;2023-04-25T11:50:03;10.20;99.90
58339;DHT22;68636;52.704;6.536;2023-04-25T12:20:12;9.80;99.90
58339;DHT22;68636;52.704;6.536;2023-04-25T12:22:44;10.20;99.90
58339;DHT22;68636;52.704;6.536;2023-04-25T12:25:13;10.00;99.90
58339;DHT22;68636;52.704;6.536;2023-04-25T12:27:39;9.60;99.90
58339;DHT22;68636;52.704;6.536;2023-04-25T12:30:09;9.70;99.90
58339;DHT22;68636;52.704;6.536;2023-04-25T12:32:36;9.30;99.90
58339;DHT22;68636;52.704;6.536;2023-04-25T12:35:05;9.70;99.90
58339;DHT22;68636;52.704;6.536;2023-04-25T12:42:24;9.50;99.90
58339;DHT22;68636;52.704;6.536;2023-04-25T12:54:35;10.10;99.90
58339;DHT22;68636;52.704;6.536;2023-04-25T12:57:01;10.20;99.90
58339;DHT22;68636;52.704;6.536;2023-04-25T13:04:20;10.10;99.90
58339;DHT22;68636;52.704;6.536;2023-04-25T13:06:46;10.20;99.90
58339;DHT22;68636;52.704;6.536;2023-04-25T13:33:42;8.20;99.90
58339;DHT22;68636;52.704;6.536;2023-04-25T13:36:08;7.80;99.90
58339;DHT22;68636;52.704;6.536;2023-04-25T13:38:34;7.60;99.90
58339;DHT22;68636;52.704;6.536;2023-04-25T13:40:59;7.20;99.90
58339;DHT22;68636;52.704;6.536;2023-04-25T13:43:26;7.30;99.90
58339;DHT22;68636;52.704;6.536;2023-04-25T13:45:52;7.50;99.90
58339;DHT22;68636;52.704;6.536;2023-04-25T13:48:18;7.60;99.90
58339;DHT22;68636;52.704;6.536;2023-04-25T13:50:45;7.80;99.90
58339;DHT22;68636;52.704;6.536;2023-04-25T13:53:11;8.00;99.90
58339;DHT22;68636;52.704;6.536;2023-04-25T13:55:37;8.20;99.90
58339;DHT22;68636;52.704;6.536;2023-04-25T13:58:04;8.60;99.90
58339;DHT22;68636;52.704;6.536;2023-04-25T14:00:37;9.10;99.90
58339;DHT22;68636;52.704;6.536;2023-04-25T14:03:08;9.30;99.90
58339;DHT22;68636;52.704;6.536;2023-04-25T14:05:37;9.70;99.90
58339;DHT22;68636;52.704;6.536;2023-04-25T14:08:08;10.00;99.90
58339;DHT22;68636;52.704;6.536;2023-04-25T14:10:35;9.90;99.90
58339;DHT22;68636;52.704;6.536;2023-04-25T14:13:01;9.90;99.90
58339;DHT22;68636;52.704;6.536;2023-04-25T14:15:28;10.00;99.90
58339;DHT22;68636;52.704;6.536;2023-04-25T14:17:54;10.10;99.90
58339;DHT22;68636;52.704;6.536;2023-04-25T14:20:20;9.80;99.90
58339;DHT22;68636;52.704;6.536;2023-04-25T14:22:47;9.50;99.90
58339;DHT22;68636;52.704;6.536;2023-04-25T14:25:13;9.50;99.90
58339;DHT22;68636;52.704;6.536;2023-04-25T14:27:38;9.90;99.90
58339;DHT22;68636;52.704;6.536;2023-04-25T14:30:04;10.40;99.90
58339;DHT22;68636;52.704;6.536;2023-04-25T14:32:30;10.30;99.90
58339;DHT22;68636;52.704;6.536;2023-04-25T14:34:57;10.00;99.90
58339;DHT22;68636;52.704;6.536;2023-04-25T14:37:23;9.60;99.90
58339;DHT22;68636;52.704;6.536;2023-04-25T14:39:49;9.20;99.90
58339;DHT22;68636;52.704;6.536;2023-04-25T14:42:14;8.80;99.90
58339;DHT22;68636;52.704;6.536;2023-04-25T14:44:40;8.30;99.90
58339;DHT22;68636;52.704;6.536;2023-04-25T14:47:06;8.40;99.90
58339;DHT22;68636;52.704;6.536;2023-04-25T14:49:32;8.50;99.90
58339;DHT22;68636;52.704;6.536;2023-04-25T14:51:58;8.50;99.90
58339;DHT22;68636;52.704;6.536;2023-04-25T14:54:24;8.60;99.90
58339;DHT22;68636;52.704;6.536;2023-04-25T14:56:49;8.50;99.90
58339;DHT22;68636;52.704;6.536;2023-04-25T14:59:15;8.60;99.90
58339;DHT22;68636;52.704;6.536;2023-04-25T15:01:41;8.80;99.90
58339;DHT22;68636;52.704;6.536;2023-04-25T15:04:07;9.00;99.90
58339;DHT22;68636;52.704;6.536;2023-04-25T15:06:33;9.30;99.90
58339;DHT22;68636;52.704;6.536;2023-04-25T15:08:59;9.50;99.90
58339;DHT22;68636;52.704;6.536;2023-04-25T15:11:25;9.50;99.90
58339;DHT22;68636;52.704;6.536;2023-04-25T15:13:50;9.50;99.90
58339;DHT22;68636;52.704;6.536;2023-04-25T15:16:16;9.30;99.90
58339;DHT22;68636;52.704;6.536;2023-04-25T15:18:42;9.60;99.90
58339;DHT22;68636;52.704;6.536;2023-04-25T15:21:07;9.70;99.90
58339;DHT22;68636;52.704;6.536;2023-04-25T15:23:33;9.60;99.90
58339;DHT22;68636;52.704;6.536;2023-04-25T15:25:59;9.60;99.90
58339;DHT22;68636;52.704;6.536;2023-04-25T15:28:25;9.60;99.90
58339;DHT22;68636;52.704;6.536;2023-04-25T15:30:51;9.70;99.90
58339;DHT22;68636;52.704;6.536;2023-04-25T15:33:16;9.50;99.90
58339;DHT22;68636;52.704;6.536;2023-04-25T15:35:42;9.50;99.90
58339;DHT22;68636;52.704;6.536;2023-04-25T15:38:08;9.50;99.90
58339;DHT22;68636;52.704;6.536;2023-04-25T15:40:36;9.60;99.90
58339;DHT22;68636;52.704;6.536;2023-04-25T15:43:02;9.50;99.90
58339;DHT22;68636;52.704;6.536;2023-04-25T15:45:27;9.30;99.90
58339;DHT22;68636;52.704;6.536;2023-04-25T15:47:55;9.20;99.90
58339;DHT22;68636;52.704;6.536;2023-04-25T15:50:22;9.00;99.90
58339;DHT22;68636;52.704;6.536;2023-04-25T15:52:50;8.70;99.90
58339;DHT22;68636;52.704;6.536;2023-04-25T15:55:16;8.10;99.90
58339;DHT22;68636;52.704;6.536;2023-04-25T15:57:43;8.20;99.90
58339;DHT22;68636;52.704;6.536;2023-04-25T16:00:09;8.00;99.90
58339;DHT22;68636;52.704;6.536;2023-04-25T16:02:40;7.80;99.90
58339;DHT22;68636;52.704;6.536;2023-04-25T16:05:06;7.80;99.90
58339;DHT22;68636;52.704;6.536;2023-04-25T16:07:32;7.90;99.90
58339;DHT22;68636;52.704;6.536;2023-04-25T16:09:58;8.00;99.90
58339;DHT22;68636;52.704;6.536;2023-04-25T16:12:24;8.00;99.90
58339;DHT22;68636;52.704;6.536;2023-04-25T16:14:50;8.10;99.90
58339;DHT22;68636;52.704;6.536;2023-04-25T16:17:16;8.20;99.90
58339;DHT22;68636;52.704;6.536;2023-04-25T16:19:41;8.00;99.90
58339;DHT22;68636;52.704;6.536;2023-04-25T16:22:07;7.90;99.90
58339;DHT22;68636;52.704;6.536;2023-04-25T16:24:34;7.90;99.90
58339;DHT22;68636;52.704;6.536;2023-04-25T16:27:00;7.70;99.90
58339;DHT22;68636;52.704;6.536;2023-04-25T16:29:28;7.50;99.90
58339;DHT22;68636;52.704;6.536;2023-04-25T16:31:54;7.70;99.90
58339;DHT22;68636;52.704;6.536;2023-04-25T16:34:20;8.10;99.90
58339;DHT22;68636;52.704;6.536;2023-04-25T16:36:48;8.20;99.90
58339;DHT22;68636;52.704;6.536;2023-04-25T16:39:14;8.30;99.90
58339;DHT22;68636;52.704;6.536;2023-04-25T16:41:40;8.30;99.90
58339;DHT22;68636;52.704;6.536;2023-04-25T16:44:05;8.50;99.90
58339;DHT22;68636;52.704;6.536;2023-04-25T16:46:32;8.70;99.90
58339;DHT22;68636;52.704;6.536;2023-04-25T16:48:58;8.90;99.90
58339;DHT22;68636;52.704;6.536;2023-04-25T16:51:24;9.00;99.90
58339;DHT22;68636;52.704;6.536;2023-04-25T16:53:50;8.80;99.90
58339;DHT22;68636;52.704;6.536;2023-04-25T16:56:16;8.90;99.90
58339;DHT22;68636;52.704;6.536;2023-04-25T16:58:42;8.70;99.90
58339;DHT22;68636;52.704;6.536;2023-04-25T17:01:08;8.70;99.90
58339;DHT22;68636;52.704;6.536;2023-04-25T17:03:33;8.60;99.90
58339;DHT22;68636;52.704;6.536;2023-04-25T17:05:59;8.40;99.90
58339;DHT22;68636;52.704;6.536;2023-04-25T17:08:26;8.30;99.90